createdAt,value
2018-07-21T00:00:54.963Z,54.70
2018-07-21T00:03:23.784Z,54.62
2018-07-21T00:05:52.625Z,54.32
2018-07-21T00:08:21.496Z,54.27
2018-07-21T00:10:50.344Z,54.29
2018-07-21T00:13:19.204Z,54.29
2018-07-21T00:15:48.041Z,54.67
2018-07-21T00:18:16.861Z,54.57
2018-07-21T00:20:45.690Z,54.61
2018-07-21T00:23:14.524Z,54.40
2018-07-21T00:26:01.002Z,54.39
2018-07-21T00:28:29.849Z,54.16
2018-07-21T00:30:58.688Z,54.69
2018-07-21T00:33:27.538Z,54.74
2018-07-21T00:35:56.549Z,54.76
2018-07-21T00:38:25.378Z,54.65
2018-07-21T00:40:54.206Z,54.42
2018-07-21T00:43:23.084Z,53.86
2018-07-21T00:45:51.937Z,54.16
2018-07-21T00:48:29.663Z,54.20
2018-07-21T00:50:58.517Z,54.49
2018-07-21T00:53:31.578Z,54.56
2018-07-21T00:56:01.399Z,54.56
2018-07-21T00:58:30.258Z,54.56
2018-07-21T01:00:59.293Z,54.66
2018-07-21T01:03:28.132Z,54.53
2018-07-21T01:05:57.003Z,54.60
2018-07-21T01:08:25.864Z,54.88
2018-07-21T01:10:54.720Z,54.94
2018-07-21T01:13:23.532Z,55.10
2018-07-21T01:15:52.370Z,55.13
2018-07-21T01:18:21.223Z,55.29
2018-07-21T01:20:50.061Z,55.64
2018-07-21T01:23:18.935Z,55.60
2018-07-21T01:25:47.753Z,54.87
2018-07-21T01:28:16.634Z,55.79
2018-07-21T01:31:39.944Z,55.17
2018-07-21T01:34:08.776Z,54.81
2018-07-21T01:36:37.625Z,55.48
2018-07-21T01:39:08.467Z,55.52
2018-07-21T01:41:37.298Z,55.66
2018-07-21T01:44:06.162Z,55.46
2018-07-21T01:46:35.230Z,55.27
2018-07-21T01:49:04.159Z,55.85
2018-07-21T01:51:32.987Z,56.04
2018-07-21T01:54:08.078Z,56.10
2018-07-21T01:56:36.908Z,56.35
2018-07-21T01:59:05.776Z,55.97
2018-07-21T02:01:34.605Z,56.10
2018-07-21T02:04:03.468Z,56.42
2018-07-21T02:06:32.305Z,56.74
2018-07-21T02:09:01.174Z,56.60
2018-07-21T02:11:30.033Z,56.39
2018-07-21T02:13:58.865Z,56.29
2018-07-21T02:17:23.556Z,56.73
2018-07-21T02:19:52.392Z,56.82
2018-07-21T02:22:21.214Z,56.78
2018-07-21T02:24:50.067Z,56.53
2018-07-21T02:27:18.899Z,57.01
2018-07-21T02:29:47.747Z,57.39
2018-07-21T02:32:16.619Z,57.47
2018-07-21T02:34:45.521Z,57.68
2018-07-21T02:37:14.381Z,57.92
2018-07-21T02:39:46.564Z,57.40
2018-07-21T02:42:15.405Z,58.05
2018-07-21T02:44:44.270Z,58.40
2018-07-21T02:47:13.197Z,57.56
2018-07-21T02:49:42.143Z,58.56
2018-07-21T02:52:11.070Z,58.95
2018-07-21T02:54:39.902Z,59.21
2018-07-21T02:57:08.828Z,58.34
2018-07-21T02:59:37.673Z,59.13
2018-07-21T03:02:06.521Z,59.15
2018-07-21T03:04:35.355Z,59.09
2018-07-21T03:07:04.184Z,59.27
2018-07-21T03:09:33.015Z,59.58
2018-07-21T03:12:01.883Z,60.02
2018-07-21T03:14:30.728Z,60.34
2018-07-21T03:16:59.536Z,60.46
2018-07-21T03:19:28.386Z,60.78
2018-07-21T03:21:57.250Z,60.88
2018-07-21T03:24:26.107Z,60.85
2018-07-21T03:26:54.971Z,61.08
2018-07-21T03:29:23.828Z,61.37
2018-07-21T03:31:52.725Z,61.46
2018-07-21T03:34:21.594Z,62.04
2018-07-21T03:36:50.417Z,61.80
2018-07-21T03:39:19.264Z,61.92
2018-07-21T03:41:48.106Z,62.28
2018-07-21T03:44:16.949Z,62.19
2018-07-21T03:46:52.662Z,62.63
2018-07-21T03:49:21.501Z,62.59
2018-07-21T03:51:50.348Z,62.41
2018-07-21T03:54:19.214Z,62.31
2018-07-21T03:56:48.039Z,62.52
2018-07-21T03:59:16.861Z,62.95
2018-07-21T04:01:45.748Z,62.78
2018-07-21T04:04:14.608Z,61.80
2018-07-21T04:06:43.461Z,62.11
2018-07-21T04:09:15.212Z,62.09
2018-07-21T04:11:44.038Z,62.08
2018-07-21T04:14:12.896Z,62.20
2018-07-21T04:16:41.800Z,62.36
2018-07-21T04:19:10.654Z,62.45
2018-07-21T04:21:39.482Z,62.59
2018-07-21T04:24:08.401Z,62.02
2018-07-21T04:26:37.175Z,62.82
2018-07-21T04:29:06.037Z,62.84
2018-07-21T04:32:41.920Z,62.82
2018-07-21T04:35:10.772Z,62.41
2018-07-21T04:37:39.607Z,62.62
2018-07-21T04:40:08.443Z,62.46
2018-07-21T04:42:37.288Z,62.48
2018-07-21T04:45:06.315Z,61.38
2018-07-21T04:47:35.157Z,61.84
2018-07-21T04:50:03.996Z,60.40
2018-07-21T04:52:32.803Z,61.05
2018-07-21T04:55:57.933Z,61.00
2018-07-21T04:58:26.769Z,61.07
2018-07-21T05:00:55.690Z,61.00
2018-07-21T05:03:24.429Z,60.79
2018-07-21T05:05:53.289Z,60.82
2018-07-21T05:08:22.123Z,60.94
2018-07-21T05:10:50.970Z,60.96
2018-07-21T05:13:20.044Z,60.97
2018-07-21T05:15:49.047Z,60.01
2018-07-21T05:18:24.196Z,59.62
2018-07-21T05:20:53.027Z,60.51
2018-07-21T05:23:22.010Z,60.65
2018-07-21T05:25:50.856Z,60.48
2018-07-21T05:28:19.705Z,60.48
2018-07-21T05:30:48.513Z,60.46
2018-07-21T05:33:17.350Z,60.47
2018-07-21T05:35:46.202Z,60.40
2018-07-21T05:38:15.064Z,60.07
2018-07-21T05:44:52.424Z,59.38
2018-07-21T05:47:21.289Z,59.51
2018-07-21T05:49:50.142Z,59.72
2018-07-21T05:52:18.981Z,59.08
2018-07-21T05:54:47.784Z,59.47
2018-07-21T05:57:16.652Z,58.39
2018-07-21T05:59:45.519Z,58.83
2018-07-21T06:02:14.326Z,57.93
2018-07-21T06:04:43.334Z,56.64
2018-07-21T06:07:13.440Z,55.63
2018-07-21T06:09:42.269Z,55.61
2018-07-21T06:12:11.125Z,54.76
2018-07-21T06:14:39.985Z,53.97
2018-07-21T06:17:08.923Z,52.58
2018-07-21T06:19:37.679Z,50.81
2018-07-21T06:22:06.615Z,50.30
2018-07-21T06:24:35.473Z,49.59
2018-07-21T06:27:04.343Z,45.45
2018-07-21T06:29:33.173Z,40.74
2018-07-21T06:32:02.030Z,37.17
2018-07-21T06:34:30.902Z,35.28
2018-07-21T06:36:59.729Z,33.47
2018-07-21T06:39:28.587Z,32.48
2018-07-21T06:41:57.409Z,31.54
2018-07-21T06:44:26.247Z,29.89
2018-07-21T06:46:55.061Z,28.76
2018-07-21T06:49:23.898Z,29.14
2018-07-21T06:52:48.300Z,28.67
2018-07-21T06:55:17.171Z,27.56
2018-07-21T06:57:46.044Z,26.96
2018-07-21T07:00:14.856Z,26.57
2018-07-21T07:02:43.701Z,25.92
2018-07-21T07:05:12.502Z,25.70
2018-07-21T07:07:41.378Z,26.05
2018-07-21T07:10:10.278Z,25.08
2018-07-21T07:12:39.121Z,25.30
2018-07-21T07:15:08.155Z,24.56
2018-07-21T07:17:37.034Z,23.08
2018-07-21T07:20:06.022Z,22.90
2018-07-21T07:22:34.875Z,22.48
2018-07-21T07:25:03.729Z,22.14
2018-07-21T07:27:32.585Z,21.52
2018-07-21T07:30:01.386Z,21.53
2018-07-21T07:32:30.341Z,20.89
2018-07-21T07:34:59.197Z,20.86
2018-07-21T07:37:28.115Z,21.20
2018-07-21T07:39:56.995Z,20.33
2018-07-21T07:42:25.860Z,19.72
2018-07-21T07:44:54.689Z,20.33
2018-07-21T07:47:23.545Z,20.08
2018-07-21T07:49:52.375Z,19.71
2018-07-21T07:52:21.251Z,19.82
2018-07-21T07:54:50.090Z,19.22
2018-07-21T07:57:18.930Z,19.26
2018-07-21T07:59:47.785Z,19.02
2018-07-21T08:02:16.615Z,19.01
2018-07-21T08:04:45.461Z,18.93
2018-07-21T08:07:14.279Z,18.95
2018-07-21T08:09:43.157Z,18.98
2018-07-21T08:12:11.957Z,17.82
2018-07-21T08:14:40.772Z,18.87
2018-07-21T08:17:09.636Z,18.82
2018-07-21T08:19:38.458Z,18.62
2018-07-21T08:22:14.458Z,18.52
2018-07-21T08:24:43.784Z,17.83
2018-07-21T08:27:12.624Z,17.90
2018-07-21T08:29:41.464Z,17.78
2018-07-21T08:32:10.330Z,18.72
2018-07-21T08:34:39.209Z,16.81
2018-07-21T08:37:08.052Z,17.46
2018-07-21T08:39:36.911Z,17.41
2018-07-21T08:42:05.734Z,17.06
2018-07-21T08:44:36.271Z,16.88
2018-07-21T08:47:05.294Z,17.75
2018-07-21T08:49:34.135Z,17.83
2018-07-21T08:52:02.999Z,16.78
2018-07-21T08:54:31.870Z,17.77
2018-07-21T08:57:00.704Z,17.49
2018-07-21T08:59:29.515Z,16.63
2018-07-21T09:01:58.358Z,16.35
2018-07-21T09:04:27.197Z,16.82
2018-07-21T09:06:56.167Z,16.88
2018-07-21T09:09:25.001Z,16.61
2018-07-21T09:11:53.839Z,15.53
2018-07-21T09:14:22.652Z,15.71
2018-07-21T09:16:51.526Z,15.45
2018-07-21T09:19:20.361Z,16.81
2018-07-21T09:21:49.203Z,16.07
2018-07-21T09:24:18.020Z,15.66
2018-07-21T09:26:46.886Z,15.98
2018-07-21T09:29:15.883Z,16.57
2018-07-21T09:31:44.736Z,17.11
2018-07-21T09:34:13.658Z,19.31
2018-07-21T09:36:42.527Z,17.21
2018-07-21T09:39:11.909Z,17.61
2018-07-21T09:41:40.846Z,16.94
2018-07-21T09:44:09.695Z,16.55
2018-07-21T09:46:38.537Z,14.18
2018-07-21T09:49:07.450Z,15.25
2018-07-21T09:52:34.417Z,15.20
2018-07-21T09:55:03.246Z,14.67
2018-07-21T09:57:32.084Z,14.62
2018-07-21T10:00:01.177Z,14.87
2018-07-21T10:02:30.036Z,14.76
2018-07-21T10:04:58.856Z,15.20
2018-07-21T10:07:27.751Z,14.78
2018-07-21T10:09:56.574Z,14.41
2018-07-21T10:12:25.399Z,15.17
2018-07-21T10:14:54.303Z,14.51
2018-07-21T10:17:23.165Z,14.30
2018-07-21T10:19:52.251Z,14.12
2018-07-21T10:22:21.086Z,15.00
2018-07-21T10:25:07.485Z,14.85
2018-07-21T10:27:54.264Z,14.35
2018-07-21T10:30:23.096Z,15.01
2018-07-21T10:32:51.911Z,15.47
2018-07-21T10:35:22.239Z,14.75
2018-07-21T10:37:52.024Z,15.02
2018-07-21T10:40:21.524Z,14.94
2018-07-21T10:42:53.607Z,14.85
2018-07-21T10:45:22.854Z,15.09
2018-07-21T10:47:57.180Z,14.68
2018-07-21T10:50:29.422Z,15.59
2018-07-21T10:52:58.269Z,15.03
2018-07-21T10:55:27.121Z,15.69
2018-07-21T10:57:55.977Z,15.42
2018-07-21T11:00:24.896Z,14.86
2018-07-21T11:02:53.675Z,15.80
2018-07-21T11:05:22.501Z,15.26
2018-07-21T11:07:51.344Z,15.53
2018-07-21T11:10:20.177Z,14.92
2018-07-21T11:12:48.990Z,15.22
2018-07-21T11:15:17.889Z,15.06
2018-07-21T11:17:46.710Z,15.07
2018-07-21T11:20:15.532Z,15.79
2018-07-21T11:22:44.346Z,15.65
2018-07-21T11:25:13.187Z,15.01
2018-07-21T11:27:42.041Z,14.53
2018-07-21T11:30:10.899Z,14.36
2018-07-21T11:32:39.753Z,15.22
2018-07-21T11:35:08.593Z,15.33
2018-07-21T11:37:37.413Z,14.65
2018-07-21T11:40:07.976Z,14.96
2018-07-21T11:42:36.792Z,14.31
2018-07-21T11:45:08.281Z,14.10
2018-07-21T11:47:37.748Z,14.21
2018-07-21T11:50:06.992Z,15.82
2018-07-21T11:52:36.066Z,14.34
2018-07-21T11:55:05.507Z,15.00
2018-07-21T11:57:39.095Z,15.32
2018-07-21T12:00:11.759Z,14.99
2018-07-21T12:02:46.347Z,15.49
2018-07-21T12:05:16.291Z,15.71
2018-07-21T12:07:47.772Z,16.02
2018-07-21T12:10:20.034Z,16.82
2018-07-21T12:12:49.629Z,16.27
2018-07-21T12:15:23.225Z,16.48
2018-07-21T12:17:50.962Z,16.46
2018-07-21T12:20:20.614Z,16.91
2018-07-21T12:22:52.042Z,16.62
2018-07-21T12:25:25.907Z,19.07
2018-07-21T12:27:55.233Z,19.01
2018-07-21T12:30:24.381Z,19.04
2018-07-21T12:32:55.229Z,19.75
2018-07-21T12:35:24.516Z,19.39
2018-07-21T12:37:55.062Z,19.83
2018-07-21T12:40:27.629Z,19.76
2018-07-21T12:43:09.470Z,19.90
2018-07-21T12:45:39.072Z,19.45
2018-07-21T12:48:16.391Z,19.73
2018-07-21T12:50:45.728Z,19.55
2018-07-21T12:53:19.763Z,20.33
2018-07-21T12:55:52.026Z,20.67
2018-07-21T12:58:23.011Z,20.39
2018-07-21T13:00:50.235Z,19.62
2018-07-21T13:03:27.402Z,19.80
2018-07-21T13:05:59.329Z,19.88
2018-07-21T13:08:31.385Z,19.69
2018-07-21T13:11:02.994Z,19.27
2018-07-21T13:13:35.208Z,18.95
2018-07-21T13:16:04.739Z,18.78
2018-07-21T13:18:38.083Z,19.34
2018-07-21T13:21:07.724Z,18.75
2018-07-21T13:23:40.342Z,19.33
2018-07-21T13:26:15.375Z,18.49
2018-07-21T13:28:47.916Z,18.87
2018-07-21T13:31:16.765Z,18.85
2018-07-21T13:33:45.632Z,18.93
2018-07-21T13:36:14.457Z,18.98
2018-07-21T13:38:43.333Z,18.49
2018-07-21T13:41:12.278Z,18.58
2018-07-21T13:43:41.147Z,18.97
2018-07-21T13:46:10.011Z,20.05
2018-07-21T13:48:38.979Z,20.40
2018-07-21T13:51:08.089Z,22.03
2018-07-21T13:53:36.904Z,23.72
2018-07-21T13:56:06.088Z,24.37
2018-07-21T13:58:34.986Z,24.17
2018-07-21T14:01:03.815Z,24.38
2018-07-21T14:03:32.698Z,23.87
2018-07-21T14:06:01.565Z,24.99
2018-07-21T14:08:30.501Z,25.48
2018-07-21T14:10:59.270Z,25.73
2018-07-21T14:13:28.119Z,25.88
2018-07-21T14:15:57.042Z,26.02
2018-07-21T14:18:25.938Z,26.21
2018-07-21T14:20:54.723Z,26.22
2018-07-21T14:23:23.622Z,26.26
2018-07-21T14:25:55.305Z,26.47
2018-07-21T14:28:24.178Z,26.62
2018-07-21T14:30:53.092Z,26.57
2018-07-21T14:33:21.918Z,27.13
2018-07-21T14:35:50.815Z,27.04
2018-07-21T14:38:19.870Z,27.28
2018-07-21T14:40:48.726Z,27.22
2018-07-21T14:43:17.568Z,27.42
2018-07-21T14:45:46.408Z,27.31
2018-07-21T14:48:15.275Z,27.63
2018-07-21T14:50:44.213Z,27.67
2018-07-21T14:53:13.123Z,28.26
2018-07-21T14:55:42.023Z,28.54
2018-07-21T14:58:10.949Z,28.67
2018-07-21T15:00:39.884Z,29.33
2018-07-21T15:03:08.662Z,30.40
2018-07-21T15:05:37.608Z,30.74
2018-07-21T15:08:06.442Z,31.43
2018-07-21T15:10:42.614Z,30.82
2018-07-21T15:13:11.461Z,30.84
2018-07-21T15:15:40.326Z,30.03
2018-07-21T15:18:09.309Z,30.15
2018-07-21T15:20:38.191Z,30.36
2018-07-21T15:23:07.011Z,30.03
2018-07-21T15:25:35.893Z,29.84
2018-07-21T15:28:04.771Z,29.62
2018-07-21T15:30:33.645Z,29.26
2018-07-21T15:33:08.710Z,29.34
2018-07-21T15:35:37.584Z,29.73
2018-07-21T15:38:06.490Z,29.67
2018-07-21T15:40:35.278Z,29.77
2018-07-21T15:43:04.137Z,29.28
2018-07-21T15:45:33.031Z,29.92
2018-07-21T15:48:01.878Z,29.32
2018-07-21T15:50:30.771Z,29.22
2018-07-21T15:52:59.631Z,29.11
2018-07-21T15:55:28.589Z,29.00
2018-07-21T15:57:57.425Z,28.58
2018-07-21T16:00:26.299Z,28.29
2018-07-21T16:02:55.139Z,28.42
2018-07-21T16:05:24.025Z,28.46
2018-07-21T16:07:52.859Z,28.37
2018-07-21T16:10:21.748Z,28.37
2018-07-21T16:12:50.560Z,28.37
2018-07-21T16:15:19.511Z,28.61
2018-07-21T16:18:42.872Z,28.88
2018-07-21T16:21:11.733Z,29.31
2018-07-21T16:23:40.599Z,29.40
2018-07-21T16:26:09.493Z,29.01
2018-07-21T16:28:38.353Z,29.34
2018-07-21T16:31:07.298Z,29.33
2018-07-21T16:33:36.126Z,29.78
2018-07-21T16:36:05.052Z,29.41
2018-07-21T16:38:33.877Z,29.75
2018-07-21T16:41:03.844Z,29.82
2018-07-21T16:43:32.674Z,29.96
2018-07-21T16:46:01.568Z,30.36
2018-07-21T16:48:32.713Z,30.55
2018-07-21T16:51:01.559Z,30.72
2018-07-21T16:53:30.544Z,30.91
2018-07-21T16:55:59.619Z,31.19
2018-07-21T16:58:28.523Z,30.97
2018-07-21T17:00:57.343Z,31.12
2018-07-21T17:03:32.315Z,31.32
2018-07-21T17:06:01.090Z,31.41
2018-07-21T17:08:29.942Z,31.37
2018-07-21T17:10:58.832Z,31.28
2018-07-21T17:13:27.689Z,31.39
2018-07-21T17:15:56.524Z,31.46
2018-07-21T17:18:25.429Z,31.58
2018-07-21T17:20:54.284Z,31.93
2018-07-21T17:23:23.173Z,32.13
2018-07-21T17:25:53.048Z,32.26
2018-07-21T17:28:21.920Z,32.26
2018-07-21T17:30:50.782Z,32.15
2018-07-21T17:33:19.637Z,32.44
2018-07-21T17:35:48.538Z,32.61
2018-07-21T17:38:17.364Z,32.42
2018-07-21T17:40:46.234Z,32.31
2018-07-21T17:43:15.115Z,32.46
2018-07-21T17:45:43.998Z,32.48
2018-07-21T17:48:15.696Z,32.79
2018-07-21T17:50:44.732Z,33.24
2018-07-21T17:53:13.600Z,33.52
2018-07-21T17:55:42.461Z,34.05
2018-07-21T17:58:11.644Z,34.07
2018-07-21T18:00:40.450Z,34.02
2018-07-21T18:03:09.357Z,34.44
2018-07-21T18:05:38.224Z,34.79
2018-07-21T18:08:07.275Z,35.30
2018-07-21T18:10:36.449Z,35.73
2018-07-21T18:13:05.377Z,36.10
2018-07-21T18:15:34.189Z,36.19
2018-07-21T18:18:03.069Z,36.25
2018-07-21T18:20:31.975Z,36.53
2018-07-21T18:23:00.836Z,36.25
2018-07-21T18:25:29.709Z,37.05
2018-07-21T18:27:58.509Z,37.30
2018-07-21T18:30:27.395Z,37.87
2018-07-21T18:33:32.108Z,38.19
2018-07-21T18:36:00.898Z,38.40
2018-07-21T18:38:29.776Z,38.68
2018-07-21T18:40:58.756Z,39.06
2018-07-21T18:43:27.639Z,39.47
2018-07-21T18:45:56.600Z,39.37
2018-07-21T18:48:25.388Z,39.67
2018-07-21T18:50:54.298Z,39.83
2018-07-21T18:53:23.357Z,40.23
2018-07-21T18:55:52.303Z,40.61
2018-07-21T18:58:21.215Z,40.92
2018-07-21T19:00:50.039Z,41.03
2018-07-21T19:03:19.030Z,41.37
2018-07-21T19:05:48.097Z,41.66
2018-07-21T19:08:45.165Z,42.28
2018-07-21T19:11:14.003Z,42.92
2018-07-21T19:13:42.889Z,43.05
2018-07-21T19:16:44.249Z,43.46
2018-07-21T19:19:13.046Z,43.66
2018-07-21T19:21:41.877Z,43.79
2018-07-21T19:24:10.694Z,43.77
2018-07-21T19:26:57.614Z,43.79
2018-07-21T19:29:26.597Z,43.98
2018-07-21T19:32:13.383Z,44.01
2018-07-21T19:34:42.211Z,44.04
2018-07-21T19:37:29.987Z,44.09
2018-07-21T19:39:58.878Z,44.10
2018-07-21T19:42:27.751Z,44.45
2018-07-21T19:44:56.634Z,44.68
2018-07-21T19:47:25.643Z,44.89
2018-07-21T19:49:54.372Z,45.33
2018-07-21T19:52:23.375Z,45.43
2018-07-21T19:54:52.241Z,45.21
2018-07-21T19:57:21.224Z,45.56
2018-07-21T19:59:50.147Z,45.49
2018-07-21T20:02:19.048Z,45.49
2018-07-21T20:04:47.975Z,45.67
2018-07-21T20:07:16.850Z,45.45
2018-07-21T20:09:45.776Z,45.94
2018-07-21T20:12:14.692Z,45.91
2018-07-21T20:14:43.653Z,46.37
2018-07-21T20:17:12.743Z,46.65
2018-07-21T20:19:41.661Z,47.20
2018-07-21T20:22:10.752Z,47.43
2018-07-21T20:24:39.638Z,47.56
2018-07-21T20:27:08.540Z,47.69
2018-07-21T20:29:37.445Z,47.83
2018-07-21T20:32:06.478Z,48.17
2018-07-21T20:34:35.352Z,48.52
2018-07-21T20:37:04.199Z,48.66
2018-07-21T20:39:33.167Z,48.76
2018-07-21T20:42:37.462Z,48.92
2018-07-21T20:45:06.387Z,49.34
2018-07-21T20:47:35.239Z,49.44
2018-07-21T20:50:04.483Z,49.73
2018-07-21T20:52:33.350Z,49.79
2018-07-21T20:55:02.229Z,49.99
2018-07-21T20:57:31.123Z,50.30
2018-07-21T21:00:00.111Z,50.77
2018-07-21T21:02:28.834Z,50.96
2018-07-21T21:04:57.706Z,51.17
2018-07-21T21:07:26.586Z,51.70
2018-07-21T21:09:55.539Z,52.14
2018-07-21T21:12:24.511Z,52.63
2018-07-21T21:14:53.355Z,53.15
2018-07-21T21:17:22.264Z,53.16
2018-07-21T21:19:51.196Z,53.85
2018-07-21T21:22:20.113Z,54.32
2018-07-21T21:24:48.931Z,55.17
2018-07-21T21:30:58.721Z,55.50
2018-07-21T21:33:27.681Z,55.96
2018-07-21T21:35:56.477Z,56.43
2018-07-21T21:38:25.368Z,56.73
2018-07-21T21:40:54.407Z,56.72
2018-07-21T21:43:23.241Z,56.93
2018-07-21T21:45:52.164Z,57.01
2018-07-21T21:48:21.073Z,57.58
2018-07-21T21:50:56.280Z,57.78
2018-07-21T21:53:25.175Z,57.89
2018-07-21T21:55:54.167Z,57.87
2018-07-21T21:58:23.047Z,57.64
2018-07-21T22:01:10.737Z,58.08
2018-07-21T22:03:39.626Z,58.01
2018-07-21T22:06:08.520Z,58.10
2018-07-21T22:08:37.565Z,58.24
2018-07-21T22:11:06.635Z,58.13
2018-07-21T22:13:35.558Z,58.47
2018-07-21T22:16:04.508Z,58.48
2018-07-21T22:18:33.407Z,58.48
2018-07-21T22:21:02.431Z,58.97
2018-07-21T22:23:31.320Z,58.81
2018-07-21T22:26:00.156Z,58.68
2018-07-21T22:28:29.124Z,58.76
2018-07-21T22:30:57.998Z,59.06
2018-07-21T22:33:34.164Z,59.37
2018-07-21T22:36:03.095Z,59.45
2018-07-21T22:38:32.000Z,59.15
2018-07-21T22:41:00.936Z,59.72
2018-07-21T22:43:29.958Z,59.74
2018-07-21T22:45:58.738Z,59.90
2018-07-21T22:48:27.688Z,59.48
2018-07-21T22:50:56.556Z,59.78
2018-07-21T22:53:25.476Z,60.06
2018-07-21T22:55:55.568Z,60.27
2018-07-21T22:58:24.407Z,59.81
2018-07-21T23:00:53.277Z,60.33
2018-07-21T23:03:22.236Z,60.20
2018-07-21T23:05:51.180Z,60.34
2018-07-21T23:08:19.994Z,60.11
2018-07-21T23:10:48.932Z,60.18
2018-07-21T23:13:17.844Z,60.31
2018-07-21T23:15:46.716Z,60.26
2018-07-21T23:21:51.032Z,60.93
2018-07-21T23:24:19.874Z,60.91
2018-07-21T23:26:48.857Z,60.70
2018-07-21T23:29:17.762Z,61.04
2018-07-21T23:31:46.644Z,61.10
2018-07-21T23:34:15.556Z,61.38
2018-07-21T23:36:44.476Z,61.11
2018-07-21T23:39:13.409Z,61.16
2018-07-21T23:45:17.742Z,61.58
2018-07-21T23:47:46.715Z,61.66
2018-07-21T23:50:15.571Z,61.81
2018-07-21T23:52:44.442Z,61.74
2018-07-21T23:55:13.345Z,61.68
2018-07-21T23:57:42.228Z,61.98
